Time;durP1;ratioP1;P1;durP2;ratioP2;P2;SDS_P1;SDS_P2;PMS_P1;PMS_P2;Temp;Humidity;BMP_temperature;BMP_pressure;BME280_temperature;BME280_humidity;BME280_pressure;Samples;Min_cycle;Max_cycle;Signal;HPM_P1;HPM_P2
2023/05/19 00:01:17;;;;;;;5.30;3.15;;;;;11.60;99194.00;;;;5052237;28;20041;-67
2023/05/19 00:03:52;;;;;;;6.85;3.50;;;;;11.50;99195.00;;;;5053142;28;20055;-67
2023/05/19 00:06:25;;;;;;;9.95;3.70;;;;;11.40;99191.00;;;;5036140;28;20059;-67
2023/05/19 00:09:02;;;;;;;5.30;2.83;;;;;11.40;99195.00;;;;5052299;28;20060;-67
2023/05/19 00:11:29;;;;;;;6.82;3.55;;;;;11.30;99188.00;;;;5052352;28;20132;-67
2023/05/19 00:13:58;;;;;;;8.32;3.70;;;;;11.30;99191.00;;;;5055232;28;20051;-66
2023/05/19 00:16:26;;;;;;;6.93;3.05;;;;;11.30;99184.00;;;;5061971;28;20143;-67
2023/05/19 00:18:53;;;;;;;5.72;3.72;;;;;11.20;99186.00;;;;5062225;28;20041;-67
2023/05/19 00:21:20;;;;;;;5.95;3.50;;;;;11.20;99180.00;;;;5060802;28;20071;-67
2023/05/19 00:23:46;;;;;;;10.23;3.38;;;;;11.30;99183.00;;;;5059006;28;20075;-67
2023/05/19 00:26:13;;;;;;;7.63;3.28;;;;;11.30;99181.00;;;;5059706;28;20120;-66
2023/05/19 00:28:49;;;;;;;6.18;3.53;;;;;11.30;99183.00;;;;5058673;28;20045;-67
2023/05/19 00:31:16;;;;;;;7.53;3.22;;;;;11.20;99189.00;;;;5060971;28;20041;-67
2023/05/19 00:33:43;;;;;;;7.18;3.25;;;;;11.20;99188.00;;;;5055216;28;22046;-67
2023/05/19 00:36:10;;;;;;;9.52;3.38;;;;;11.10;99180.00;;;;5053418;28;20128;-67
2023/05/19 00:38:37;;;;;;;7.22;3.47;;;;;11.10;99188.00;;;;5051814;28;20059;-67
2023/05/19 00:41:05;;;;;;;7.15;3.47;;;;;11.00;99183.00;;;;5051363;28;20041;-66
2023/05/19 00:43:35;;;;;;;9.88;3.28;;;;;11.00;99181.00;;;;5051334;28;20048;-66
2023/05/19 00:46:02;;;;;;;7.55;3.50;;;;;11.00;99183.00;;;;5035100;28;20080;-67
2023/05/19 00:48:29;;;;;;;5.65;3.78;;;;;10.90;99181.00;;;;5051824;28;20402;-66
2023/05/19 00:51:00;;;;;;;8.77;3.38;;;;;10.90;99167.00;;;;5051190;28;20037;-66
2023/05/19 00:53:28;;;;;;;4.20;3.05;;;;;10.80;99161.00;;;;5052086;28;20060;-66
2023/05/19 00:55:55;;;;;;;5.07;3.35;;;;;10.80;99164.00;;;;5053026;28;20183;-68
2023/05/19 00:58:22;;;;;;;7.40;3.10;;;;;10.70;99157.00;;;;5055514;28;20056;-68
2023/05/19 01:00:49;;;;;;;10.45;3.20;;;;;10.60;99144.00;;;;5056063;28;20052;-68
2023/05/19 01:03:19;;;;;;;6.50;3.78;;;;;10.50;99152.00;;;;5057547;28;20041;-68
2023/05/19 01:05:52;;;;;;;5.72;3.42;;;;;10.30;99149.00;;;;5057156;28;20075;-68
2023/05/19 01:08:19;;;;;;;6.28;3.45;;;;;10.30;99147.00;;;;5040279;28;20476;-68
2023/05/19 01:10:46;;;;;;;6.13;3.15;;;;;10.40;99137.00;;;;5055939;28;20067;-68
2023/05/19 01:13:13;;;;;;;5.43;2.83;;;;;10.40;99136.00;;;;5056337;28;20075;-68
2023/05/19 01:16:05;;;;;;;6.82;3.20;;;;;10.30;99141.00;;;;5056347;28;20041;-69
2023/05/19 01:18:38;;;;;;;4.78;3.10;;;;;10.40;99138.00;;;;5058190;28;20049;-68
2023/05/19 01:21:35;;;;;;;7.30;4.30;;;;;10.40;99142.00;;;;5056528;28;20120;-68
2023/05/19 01:24:24;;;;;;;5.68;3.20;;;;;10.30;99142.00;;;;5056055;28;20052;-68
2023/05/19 01:27:15;;;;;;;9.65;3.50;;;;;10.30;99142.00;;;;5057560;28;20558;-68
2023/05/19 01:30:03;;;;;;;6.35;3.60;;;;;10.30;99139.00;;;;5040050;28;20049;-68
2023/05/19 01:32:33;;;;;;;6.50;2.97;;;;;10.20;99149.00;;;;5056798;28;20065;-68
2023/05/19 01:35:03;;;;;;;8.40;3.22;;;;;10.20;99149.00;;;;5055811;28;20045;-68
2023/05/19 01:37:31;;;;;;;7.15;3.35;;;;;10.20;99149.00;;;;5055900;28;20041;-68
2023/05/19 01:39:57;;;;;;;5.10;3.50;;;;;10.10;99142.00;;;;5057225;28;20049;-68
2023/05/19 01:42:26;;;;;;;4.93;3.40;;;;;10.10;99152.00;;;;5056556;28;20049;-68
2023/05/19 01:44:54;;;;;;;6.72;3.60;;;;;10.00;99149.00;;;;5055204;28;20041;-68
2023/05/19 01:47:21;;;;;;;7.85;3.47;;;;;10.10;99149.00;;;;5056923;28;20144;-68
2023/05/19 01:49:48;;;;;;;5.75;3.58;;;;;10.10;99149.00;;;;5056321;28;20072;-68
2023/05/19 01:52:14;;;;;;;8.75;4.10;;;;;10.00;99159.00;;;;5053553;28;20045;-68
2023/05/19 01:54:41;;;;;;;5.28;3.38;;;;;9.90;99152.00;;;;5053932;28;20124;-68
2023/05/19 01:57:07;;;;;;;6.88;3.58;;;;;9.80;99152.00;;;;5054582;28;20164;-67
2023/05/19 01:59:59;;;;;;;7.00;3.85;;;;;9.90;99158.00;;;;5037467;28;20071;-68
2023/05/19 02:02:42;;;;;;;6.50;3.55;;;;;9.80;99157.00;;;;5054474;28;20044;-68
2023/05/19 02:05:40;;;;;;;10.07;3.75;;;;;9.70;99162.00;;;;5053033;28;20697;-68
2023/05/19 02:08:25;;;;;;;4.65;3.25;;;;;9.70;99155.00;;;;5047850;28;20091;-68
2023/05/19 02:11:20;;;;;;;4.78;3.13;;;;;9.80;99150.00;;;;5055203;28;20084;-67
2023/05/19 02:13:50;;;;;;;4.85;3.53;;;;;9.70;99149.00;;;;5048704;28;20608;-67
2023/05/19 02:16:17;;;;;;;5.38;3.25;;;;;9.60;99158.00;;;;5053502;28;20140;-67
2023/05/19 02:18:45;;;;;;;5.15;3.00;;;;;9.50;99151.00;;;;5036809;28;20047;-67
2023/05/19 02:21:12;;;;;;;9.13;3.65;;;;;9.40;99159.00;;;;5053095;28;20041;-67
2023/05/19 02:23:40;;;;;;;13.75;4.28;;;;;9.30;99151.00;;;;5054509;28;20449;-67
2023/05/19 02:26:07;;;;;;;6.68;3.80;;;;;9.20;99149.00;;;;5053170;28;20421;-67
2023/05/19 02:28:35;;;;;;;9.27;4.32;;;;;9.10;99151.00;;;;5053211;28;20079;-67
2023/05/19 02:31:04;;;;;;;10.00;3.38;;;;;9.10;99147.00;;;;5056529;28;20411;-68
2023/05/19 02:33:30;;;;;;;3.97;3.50;;;;;9.10;99148.00;;;;5056358;28;20136;-68
2023/05/19 02:35:57;;;;;;;6.85;3.95;;;;;9.00;99150.00;;;;5057988;28;20056;-69
2023/05/19 02:38:23;;;;;;;11.02;4.30;;;;;9.00;99151.00;;;;5056024;28;20065;-69
2023/05/19 02:40:52;;;;;;;8.88;4.22;;;;;9.10;99152.00;;;;5056089;28;20489;-68
2023/05/19 02:43:18;;;;;;;8.05;3.40;;;;;9.20;99141.00;;;;5038892;28;20091;-68
2023/05/19 02:45:45;;;;;;;5.32;3.33;;;;;9.20;99141.00;;;;5054943;28;20070;-67
2023/05/19 02:48:12;;;;;;;5.63;3.30;;;;;9.10;99135.00;;;;5052796;28;20434;-67
2023/05/19 02:50:38;;;;;;;6.45;3.38;;;;;9.10;99130.00;;;;5052645;28;20041;-67
2023/05/19 02:53:05;;;;;;;6.72;4.13;;;;;9.10;99132.00;;;;5054149;28;20730;-67
2023/05/19 02:55:32;;;;;;;6.72;3.50;;;;;9.10;99129.00;;;;5036243;28;20107;-67
2023/05/19 02:57:58;;;;;;;5.93;3.70;;;;;9.00;99136.00;;;;5052538;28;20056;-67
2023/05/19 03:00:27;;;;;;;5.40;3.60;;;;;8.90;99130.00;;;;5036423;28;20052;-67
2023/05/19 03:02:54;;;;;;;6.63;3.80;;;;;8.80;99130.00;;;;5036661;28;20092;-68
2023/05/19 03:05:21;;;;;;;6.35;4.10;;;;;8.80;99127.00;;;;5056150;28;20130;-69
2023/05/19 03:07:48;;;;;;;8.05;3.42;;;;;8.90;99125.00;;;;5054797;28;20049;-69
2023/05/19 03:10:14;;;;;;;7.47;3.75;;;;;8.80;99129.00;;;;5054962;28;20083;-69
2023/05/19 03:12:41;;;;;;;4.82;3.50;;;;;8.70;99121.00;;;;5056552;28;20482;-69
2023/05/19 03:15:08;;;;;;;4.70;3.60;;;;;8.80;99138.00;;;;5056698;28;20095;-69
2023/05/19 03:17:35;;;;;;;12.05;4.40;;;;;8.80;99132.00;;;;5057691;28;20041;-68
2023/05/19 03:20:01;;;;;;;8.52;4.15;;;;;8.70;99130.00;;;;5059096;28;20073;-67
2023/05/19 03:22:31;;;;;;;6.60;3.67;;;;;8.70;99134.00;;;;5066517;28;20067;-68
2023/05/19 03:24:57;;;;;;;4.55;3.72;;;;;8.60;99121.00;;;;5064502;28;20048;-67
2023/05/19 03:27:24;;;;;;;8.38;5.38;;;;;8.50;99124.00;;;;5071031;28;20128;-68
2023/05/19 03:29:52;;;;;;;10.85;4.43;;;;;8.50;99131.00;;;;5070133;28;20049;-68
2023/05/19 03:32:20;;;;;;;9.65;4.50;;;;;8.50;99122.00;;;;5066966;28;20037;-68
2023/05/19 03:34:47;;;;;;;9.20;4.35;;;;;8.50;99128.00;;;;5061021;28;20540;-67
2023/05/19 03:37:14;;;;;;;6.30;3.75;;;;;8.40;99118.00;;;;5059843;28;20049;-67
2023/05/19 03:39:41;;;;;;;4.32;3.90;;;;;8.50;99129.00;;;;5044114;28;20052;-68
2023/05/19 03:42:07;;;;;;;6.65;3.60;;;;;8.40;99135.00;;;;5058304;28;20095;-68
2023/05/19 03:44:34;;;;;;;6.93;3.40;;;;;8.40;99125.00;;;;5059889;28;20045;-68
2023/05/19 03:47:01;;;;;;;6.25;3.95;;;;;8.30;99121.00;;;;5059610;28;20045;-68
2023/05/19 03:49:47;;;;;;;7.50;3.35;;;;;8.30;99124.00;;;;5060582;28;20558;-69
2023/05/19 03:52:33;;;;;;;5.30;3.53;;;;;8.30;99123.00;;;;5062829;28;20052;-69
2023/05/19 03:55:11;;;;;;;7.10;3.78;;;;;8.20;99132.00;;;;5057648;28;20060;-69
2023/05/19 03:57:38;;;;;;;4.72;3.83;;;;;8.20;99128.00;;;;5056425;28;20147;-68
2023/05/19 04:00:05;;;;;;;10.50;4.03;;;;;8.20;99135.00;;;;5041212;28;20159;-68
2023/05/19 04:02:37;;;;;;;6.32;3.42;;;;;8.30;99140.00;;;;5058090;28;20049;-70
2023/05/19 04:05:07;;;;;;;8.52;4.65;;;;;8.30;99139.00;;;;5039976;28;20497;-69
2023/05/19 04:07:35;;;;;;;22.42;11.13;;;;;8.40;99139.00;;;;5041402;28;20067;-69
2023/05/19 04:10:03;;;;;;;6.35;3.90;;;;;8.50;99137.00;;;;5057778;28;20049;-70
2023/05/19 04:12:30;;;;;;;4.78;3.60;;;;;8.40;99132.00;;;;5056035;28;20079;-67
2023/05/19 04:14:57;;;;;;;9.40;4.35;;;;;8.40;99134.00;;;;5063453;28;20095;-68
2023/05/19 04:17:25;;;;;;;10.73;4.65;;;;;8.40;99139.00;;;;5063598;28;20083;-68
2023/05/19 04:19:53;;;;;;;8.30;3.33;;;;;8.40;99135.00;;;;5047189;28;20055;-67
2023/05/19 04:22:21;;;;;;;8.82;3.50;;;;;8.40;99142.00;;;;5046042;28;20048;-69
2023/05/19 04:24:49;;;;;;;5.65;3.55;;;;;8.40;99142.00;;;;5060657;28;20049;-69
2023/05/19 04:27:16;;;;;;;6.10;4.28;;;;;8.40;99146.00;;;;5062021;28;20045;-69
2023/05/19 04:29:44;;;;;;;5.43;3.30;;;;;8.50;99148.00;;;;5042660;28;20045;-69
2023/05/19 04:32:16;;;;;;;7.18;3.53;;;;;8.70;99146.00;;;;5061090;28;20041;-68
2023/05/19 04:34:44;;;;;;;7.70;3.63;;;;;8.70;99143.00;;;;5060656;28;20045;-68
2023/05/19 04:37:16;;;;;;;5.28;4.10;;;;;8.70;99141.00;;;;5044856;28;20127;-69
2023/05/19 04:39:44;;;;;;;5.55;3.45;;;;;8.70;99141.00;;;;5060882;28;20445;-69
2023/05/19 04:42:18;;;;;;;23.80;14.05;;;;;8.90;99146.00;;;;5044639;28;20037;-69
2023/05/19 04:44:47;;;;;;;7.55;4.32;;;;;8.90;99147.00;;;;5062597;28;20140;-69
2023/05/19 04:47:15;;;;;;;6.13;3.58;;;;;9.00;99149.00;;;;5062173;28;20048;-68
2023/05/19 04:49:41;;;;;;;7.05;4.35;;;;;9.10;99157.00;;;;5047897;28;20340;-69
2023/05/19 04:52:09;;;;;;;8.07;3.88;;;;;9.10;99161.00;;;;5051086;28;20090;-69
2023/05/19 04:54:37;;;;;;;5.00;3.72;;;;;9.20;99160.00;;;;5055964;28;20025;-69
2023/05/19 04:57:05;;;;;;;7.57;4.75;;;;;9.20;99159.00;;;;5059450;28;20518;-69
2023/05/19 04:59:35;;;;;;;8.13;4.20;;;;;9.10;99149.00;;;;5074917;28;20048;-69
2023/05/19 05:02:05;;;;;;;6.28;4.03;;;;;9.10;99162.00;;;;5066996;28;20067;-67
2023/05/19 05:04:33;;;;;;;8.57;3.70;;;;;9.30;99153.00;;;;5057522;28;20413;-67
2023/05/19 05:07:00;;;;;;;8.10;3.80;;;;;9.30;99158.00;;;;5064673;28;20057;-67
2023/05/19 05:09:27;;;;;;;6.05;3.78;;;;;9.40;99158.00;;;;5060558;28;20075;-67
2023/05/19 05:11:56;;;;;;;11.15;3.83;;;;;9.50;99154.00;;;;5049038;28;20047;-67
2023/05/19 05:14:23;;;;;;;7.93;3.90;;;;;9.60;99151.00;;;;5061032;28;20072;-65
2023/05/19 05:16:51;;;;;;;6.40;3.35;;;;;9.70;99149.00;;;;5059935;28;20041;-66
2023/05/19 05:19:22;;;;;;;6.93;3.58;;;;;9.80;99153.00;;;;5064108;28;20075;-66
2023/05/19 05:21:49;;;;;;;8.10;3.78;;;;;9.80;99142.00;;;;5058820;28;20033;-66
2023/05/19 05:24:17;;;;;;;7.50;3.78;;;;;10.00;99143.00;;;;5057597;28;20109;-66
2023/05/19 05:26:49;;;;;;;5.93;3.30;;;;;10.00;99147.00;;;;5061651;28;20096;-66
2023/05/19 05:29:15;;;;;;;6.32;3.63;;;;;10.10;99141.00;;;;5054487;28;20045;-66
2023/05/19 05:31:42;;;;;;;8.70;4.15;;;;;10.10;99146.00;;;;5053208;28;20061;-66
2023/05/19 05:34:10;;;;;;;8.45;4.22;;;;;10.30;99146.00;;;;5052483;28;20053;-65
2023/05/19 05:36:36;;;;;;;10.10;5.10;;;;;10.30;99137.00;;;;5050592;28;20052;-66
2023/05/19 05:39:04;;;;;;;7.03;3.80;;;;;10.40;99142.00;;;;5050697;28;20132;-66
2023/05/19 05:41:33;;;;;;;7.63;4.03;;;;;10.50;99141.00;;;;5053499;28;20041;-66
2023/05/19 05:44:04;;;;;;;8.55;4.68;;;;;10.70;99143.00;;;;5037826;28;20069;-67
2023/05/19 05:46:31;;;;;;;6.45;3.67;;;;;10.90;99143.00;;;;5037380;28;20049;-66
2023/05/19 05:48:59;;;;;;;7.07;3.95;;;;;11.10;99147.00;;;;5054780;28;20052;-67
2023/05/19 05:51:26;;;;;;;8.80;4.15;;;;;11.20;99143.00;;;;5054042;28;20058;-67
2023/05/19 05:53:54;;;;;;;5.55;3.35;;;;;11.20;99144.00;;;;5053918;28;20186;-67
2023/05/19 05:56:29;;;;;;;14.93;7.20;;;;;11.30;99140.00;;;;5054041;28;20524;-68
2023/05/19 05:58:55;;;;;;;13.15;6.75;;;;;11.40;99138.00;;;;5036981;28;20045;-67
2023/05/19 06:01:22;;;;;;;5.47;3.20;;;;;11.50;99144.00;;;;5053933;28;20037;-67
2023/05/19 06:03:50;;;;;;;5.72;3.92;;;;;11.60;99138.00;;;;5053630;28;20083;-67
2023/05/19 06:06:22;;;;;;;8.32;3.97;;;;;11.60;99142.00;;;;5054600;28;20125;-67
2023/05/19 06:08:50;;;;;;;5.95;3.40;;;;;11.80;99148.00;;;;5053395;28;20084;-67
2023/05/19 06:11:18;;;;;;;4.97;3.15;;;;;12.00;99142.00;;;;5053726;28;20231;-67
2023/05/19 06:13:44;;;;;;;4.53;2.90;;;;;12.00;99145.00;;;;5037349;28;20071;-67
2023/05/19 06:16:19;;;;;;;6.53;2.85;;;;;12.00;99141.00;;;;5053678;28;20060;-67
2023/05/19 06:18:46;;;;;;;5.28;2.40;;;;;12.10;99150.00;;;;5053530;28;20448;-68
2023/05/19 06:21:13;;;;;;;7.72;2.40;;;;;12.10;99134.00;;;;5036906;28;20127;-67
2023/05/19 06:23:40;;;;;;;6.70;2.80;;;;;12.20;99137.00;;;;5053532;28;20055;-67
2023/05/19 06:26:09;;;;;;;5.88;2.50;;;;;12.20;99146.00;;;;5053367;28;20072;-67
2023/05/19 06:28:36;;;;;;;6.75;2.78;;;;;12.20;99144.00;;;;5053338;28;20513;-67
2023/05/19 06:31:03;;;;;;;7.30;3.65;;;;;12.30;99140.00;;;;5053046;28;20044;-67
2023/05/19 06:33:59;;;;;;;8.20;2.83;;;;;12.40;99144.00;;;;5053096;28;20060;-67
2023/05/19 06:36:27;;;;;;;7.95;2.55;;;;;12.40;99141.00;;;;5053087;28;20068;-68
2023/05/19 06:38:56;;;;;;;5.93;2.40;;;;;12.60;99138.00;;;;5036952;28;20049;-67
2023/05/19 06:41:23;;;;;;;4.18;3.00;;;;;12.80;99138.00;;;;5053552;28;20136;-67
2023/05/19 06:43:51;;;;;;;5.50;2.70;;;;;13.00;99134.00;;;;5036796;28;20045;-67
2023/05/19 06:46:20;;;;;;;6.43;2.58;;;;;13.00;99128.00;;;;5054203;28;20662;-67
2023/05/19 06:48:47;;;;;;;5.15;2.30;;;;;13.10;99130.00;;;;5052599;28;20099;-67
2023/05/19 06:51:20;;;;;;;4.43;2.10;;;;;13.20;99139.00;;;;5051870;28;20041;-68
2023/05/19 06:53:50;;;;;;;7.88;3.03;;;;;13.40;99134.00;;;;5054004;28;20441;-67
2023/05/19 06:56:17;;;;;;;9.15;2.88;;;;;13.60;99143.00;;;;5052738;28;20094;-68
2023/05/19 06:58:44;;;;;;;6.28;2.22;;;;;13.70;99143.00;;;;5053059;28;20052;-67
2023/05/19 07:01:11;;;;;;;5.55;2.60;;;;;13.80;99139.00;;;;5052516;28;20096;-68
2023/05/19 07:03:43;;;;;;;6.28;2.42;;;;;13.90;99141.00;;;;5052546;28;20045;-67
2023/05/19 07:06:11;;;;;;;4.82;2.03;;;;;14.00;99136.00;;;;5052878;28;20041;-68
2023/05/19 07:08:38;;;;;;;6.13;2.20;;;;;14.10;99135.00;;;;5052651;28;20045;-67
2023/05/19 07:11:06;;;;;;;5.97;2.10;;;;;14.20;99136.00;;;;5036000;28;20563;-67
2023/05/19 07:13:33;;;;;;;5.30;2.53;;;;;14.30;99133.00;;;;5035829;28;20071;-68
2023/05/19 07:16:00;;;;;;;8.40;2.25;;;;;14.40;99131.00;;;;5053118;28;20563;-68
2023/05/19 07:18:30;;;;;;;5.60;2.10;;;;;14.50;99133.00;;;;5053846;28;20506;-68
2023/05/19 07:20:57;;;;;;;6.43;2.03;;;;;14.60;99139.00;;;;5061451;28;20044;-68
2023/05/19 07:23:24;;;;;;;6.10;2.00;;;;;14.70;99137.00;;;;5072687;28;20059;-68
2023/05/19 07:25:55;;;;;;;6.10;2.35;;;;;14.70;99133.00;;;;5065963;28;20049;-67
2023/05/19 07:28:22;;;;;;;3.22;1.73;;;;;14.80;99128.00;;;;5054023;28;20057;-68
2023/05/19 07:30:48;;;;;;;6.82;2.05;;;;;14.90;99127.00;;;;5053334;28;20387;-68
2023/05/19 07:33:15;;;;;;;7.72;2.42;;;;;14.90;99123.00;;;;5055193;28;20489;-69
2023/05/19 07:35:43;;;;;;;6.10;2.35;;;;;15.00;99118.00;;;;5055513;28;20041;-67
2023/05/19 07:38:10;;;;;;;7.05;3.40;;;;;15.10;99128.00;;;;5037573;28;20348;-68
2023/05/19 07:40:37;;;;;;;9.18;2.80;;;;;15.10;99123.00;;;;5036888;28;20411;-68
2023/05/19 07:43:03;;;;;;;5.03;1.60;;;;;15.10;99123.00;;;;5054009;28;20037;-68
2023/05/19 07:45:30;;;;;;;3.63;2.35;;;;;15.10;99125.00;;;;5053403;28;20083;-68
2023/05/19 07:47:56;;;;;;;4.65;2.30;;;;;15.20;99119.00;;;;5053692;28;20059;-69
2023/05/19 07:50:24;;;;;;;4.18;2.08;;;;;15.40;99125.00;;;;5053287;28;20049;-68
2023/05/19 07:52:50;;;;;;;7.05;2.15;;;;;15.40;99121.00;;;;5051841;28;20514;-68
2023/05/19 07:55:18;;;;;;;6.68;2.42;;;;;15.40;99130.00;;;;5053408;28;20131;-69
2023/05/19 07:57:44;;;;;;;6.68;2.33;;;;;15.40;99130.00;;;;5052402;28;20055;-69
2023/05/19 08:00:12;;;;;;;5.57;1.90;;;;;15.40;99126.00;;;;5053799;28;20040;-68
2023/05/19 08:02:39;;;;;;;6.47;2.00;;;;;15.40;99114.00;;;;5053721;28;20115;-67
2023/05/19 08:05:08;;;;;;;5.90;2.50;;;;;15.40;99115.00;;;;5052540;28;20493;-67
2023/05/19 08:07:35;;;;;;;6.35;2.20;;;;;15.50;99114.00;;;;5052379;28;20066;-67
2023/05/19 08:10:02;;;;;;;6.45;2.35;;;;;15.50;99114.00;;;;5051497;28;20094;-68
2023/05/19 08:12:28;;;;;;;7.20;2.20;;;;;15.70;99109.00;;;;5036465;28;20458;-68
2023/05/19 08:14:55;;;;;;;4.63;1.92;;;;;15.70;99115.00;;;;5054385;28;20077;-68
2023/05/19 08:17:25;;;;;;;6.97;2.30;;;;;15.80;99115.00;;;;5053622;28;20486;-68
2023/05/19 08:19:52;;;;;;;9.07;2.08;;;;;15.90;99115.00;;;;5053041;28;20493;-69
2023/05/19 08:22:18;;;;;;;7.72;2.20;;;;;16.00;99120.00;;;;5054853;28;20037;-68
2023/05/19 08:24:45;;;;;;;10.45;2.47;;;;;16.10;99113.00;;;;5052921;28;20072;-68
2023/05/19 08:27:12;;;;;;;7.45;2.53;;;;;16.00;99114.00;;;;5052618;28;20543;-69
2023/05/19 08:29:38;;;;;;;6.53;2.50;;;;;16.00;99099.00;;;;5052731;28;20041;-68
2023/05/19 08:32:05;;;;;;;4.68;2.10;;;;;16.00;99105.00;;;;5052885;28;20110;-68
2023/05/19 08:34:32;;;;;;;7.20;2.20;;;;;16.00;99102.00;;;;5053070;28;20558;-68
2023/05/19 08:36:58;;;;;;;10.45;3.20;;;;;16.10;99104.00;;;;5052453;28;20065;-69
2023/05/19 08:39:26;;;;;;;5.05;2.10;;;;;16.20;99105.00;;;;5052141;28;20418;-68
2023/05/19 08:41:53;;;;;;;8.75;2.47;;;;;16.10;99103.00;;;;5050925;28;20045;-69
2023/05/19 08:44:20;;;;;;;6.47;2.40;;;;;16.20;99100.00;;;;5052822;28;20040;-68
2023/05/19 08:46:48;;;;;;;5.97;2.22;;;;;16.20;99092.00;;;;5051523;28;20099;-68
2023/05/19 08:49:17;;;;;;;6.93;2.50;;;;;16.30;99097.00;;;;5035532;28;20111;-69
2023/05/19 08:51:59;;;;;;;5.30;2.45;;;;;16.50;99106.00;;;;5034637;28;20490;-69
2023/05/19 08:54:32;;;;;;;6.43;3.17;;;;;16.50;99092.00;;;;5052414;28;20076;-66
2023/05/19 08:56:59;;;;;;;7.60;2.85;;;;;16.60;99096.00;;;;5052661;28;20514;-70
2023/05/19 08:59:26;;;;;;;7.25;2.90;;;;;16.70;99096.00;;;;5051852;28;20049;-70
2023/05/19 09:01:53;;;;;;;9.23;2.42;;;;;16.90;99093.00;;;;5034617;28;20045;-69
2023/05/19 09:04:20;;;;;;;6.55;2.58;;;;;16.90;99091.00;;;;5052324;28;20040;-67
2023/05/19 09:06:49;;;;;;;6.47;2.63;;;;;16.90;99085.00;;;;5052134;28;20037;-67
2023/05/19 09:09:16;;;;;;;5.25;2.25;;;;;16.90;99083.00;;;;5051980;28;20502;-67
2023/05/19 09:11:45;;;;;;;7.70;2.50;;;;;16.80;99086.00;;;;5050527;28;20120;-67
2023/05/19 09:14:12;;;;;;;9.93;2.80;;;;;16.90;99072.00;;;;5050160;28;20040;-67
2023/05/19 09:16:39;;;;;;;6.30;2.95;;;;;17.00;99069.00;;;;5055390;28;20076;-67
2023/05/19 09:19:14;;;;;;;4.97;2.35;;;;;17.20;99073.00;;;;5055794;28;20055;-67
2023/05/19 09:21:40;;;;;;;8.13;2.42;;;;;17.30;99065.00;;;;5055760;28;20094;-67
2023/05/19 09:24:08;;;;;;;5.50;2.38;;;;;17.40;99070.00;;;;5055757;28;20049;-66
2023/05/19 09:26:39;;;;;;;6.65;2.58;;;;;17.40;99067.00;;;;5055685;28;20127;-66
2023/05/19 09:29:14;;;;;;;7.05;2.88;;;;;17.30;99065.00;;;;5054084;28;20041;-66
2023/05/19 09:31:49;;;;;;;6.32;2.60;;;;;17.30;99055.00;;;;5054211;28;20633;-66
2023/05/19 09:34:16;;;;;;;7.05;2.40;;;;;17.30;99057.00;;;;5054121;28;20081;-66
2023/05/19 09:36:43;;;;;;;5.28;2.20;;;;;17.30;99063.00;;;;5055735;28;20037;-67
2023/05/19 09:39:16;;;;;;;7.03;2.30;;;;;17.50;99061.00;;;;5054060;28;20055;-68
2023/05/19 09:41:44;;;;;;;4.75;2.03;;;;;17.60;99067.00;;;;5054120;28;20409;-68
2023/05/19 09:44:27;;;;;;;9.48;2.92;;;;;17.70;99058.00;;;;5054279;28;20044;-66
2023/05/19 09:46:55;;;;;;;5.45;2.20;;;;;17.70;99074.00;;;;5038230;28;20131;-68
2023/05/19 09:49:23;;;;;;;5.22;1.95;;;;;17.70;99069.00;;;;5053955;28;20040;-67
2023/05/19 09:51:56;;;;;;;6.20;2.20;;;;;17.80;99064.00;;;;5054254;28;20051;-66
2023/05/19 09:54:23;;;;;;;7.33;2.17;;;;;17.80;99053.00;;;;5058833;28;20123;-66
2023/05/19 09:57:00;;;;;;;8.45;2.20;;;;;17.80;99057.00;;;;5065466;28;20064;-66
2023/05/19 09:59:28;;;;;;;3.30;2.00;;;;;17.80;99048.00;;;;5063153;28;20075;-67
2023/05/19 10:02:00;;;;;;;5.65;2.10;;;;;17.80;99043.00;;;;5060682;28;20045;-66
2023/05/19 10:04:28;;;;;;;6.78;1.98;;;;;17.90;99057.00;;;;5064533;28;20071;-66
2023/05/19 10:06:58;;;;;;;6.60;1.95;;;;;17.80;99051.00;;;;5064196;28;20033;-67
2023/05/19 10:09:29;;;;;;;6.43;2.63;;;;;17.80;99057.00;;;;5058000;28;20049;-66
2023/05/19 10:11:57;;;;;;;5.00;1.85;;;;;17.80;99049.00;;;;5058554;28;20045;-66
2023/05/19 10:14:26;;;;;;;4.68;2.00;;;;;18.00;99044.00;;;;5056718;28;20049;-67
2023/05/19 10:16:54;;;;;;;6.05;1.85;;;;;18.00;99044.00;;;;5055746;28;20136;-65
2023/05/19 10:19:23;;;;;;;7.30;2.08;;;;;18.00;99048.00;;;;5054497;28;20076;-66
2023/05/19 10:21:51;;;;;;;3.25;2.13;;;;;18.00;99048.00;;;;5056183;28;20044;-66
2023/05/19 10:24:18;;;;;;;5.20;1.70;;;;;18.10;99039.00;;;;5054165;28;20096;-67
2023/05/19 10:26:49;;;;;;;6.40;2.38;;;;;18.10;99038.00;;;;5054887;28;20060;-66
2023/05/19 10:29:20;;;;;;;5.10;2.10;;;;;18.10;99047.00;;;;5054216;28;20045;-66
2023/05/19 10:31:50;;;;;;;5.25;1.70;;;;;18.20;99039.00;;;;5055013;28;20053;-66
2023/05/19 10:34:49;;;;;;;4.65;1.90;;;;;18.30;99030.00;;;;5054647;28;20045;-66
2023/05/19 10:37:55;;;;;;;6.15;2.10;;;;;18.40;99029.00;;;;5056104;28;20095;-66
2023/05/19 10:41:10;;;;;;;3.40;1.77;;;;;18.70;99028.00;;;;5054355;28;20055;-66
2023/05/19 10:44:15;;;;;;;5.97;1.98;;;;;18.70;99027.00;;;;5032890;28;20499;-67
2023/05/19 10:46:42;;;;;;;3.35;1.73;;;;;18.80;99024.00;;;;5016490;28;20192;-66
2023/05/19 10:49:09;;;;;;;6.72;1.70;;;;;18.90;99013.00;;;;5029641;28;20045;-67
2023/05/19 10:51:36;;;;;;;5.47;1.70;;;;;18.80;99018.00;;;;5055223;28;20059;-67
2023/05/19 10:54:08;;;;;;;5.10;1.83;;;;;19.00;99008.00;;;;5054101;28;20044;-67
2023/05/19 10:56:41;;;;;;;7.22;2.40;;;;;19.20;99015.00;;;;5055490;28;20052;-66
2023/05/19 10:59:31;;;;;;;7.40;1.85;;;;;19.30;99018.00;;;;5054143;28;20041;-66
2023/05/19 11:02:05;;;;;;;6.60;1.95;;;;;19.20;99029.00;;;;5055048;28;20055;-66
2023/05/19 11:04:49;;;;;;;6.30;2.10;;;;;19.20;99028.00;;;;5054937;28;20061;-67
2023/05/19 11:07:23;;;;;;;7.95;2.75;;;;;19.10;99027.00;;;;5053947;28;20100;-66
2023/05/19 11:09:53;;;;;;;4.47;2.03;;;;;18.80;99023.00;;;;5053610;28;20049;-65
2023/05/19 11:12:21;;;;;;;6.03;2.20;;;;;18.70;99015.00;;;;5055826;28;20517;-65
2023/05/19 11:14:54;;;;;;;3.72;1.70;;;;;18.60;99034.00;;;;5056608;28;20053;-66
2023/05/19 11:17:23;;;;;;;4.47;2.05;;;;;18.50;99014.00;;;;5070000;28;20055;-66
2023/05/19 11:19:54;;;;;;;6.53;2.28;;;;;18.50;99015.00;;;;5075034;28;20041;-67
2023/05/19 11:22:25;;;;;;;3.38;1.85;;;;;18.50;99014.00;;;;5062054;28;20078;-66
2023/05/19 11:24:56;;;;;;;5.30;1.92;;;;;18.60;99011.00;;;;5058010;28;20052;-66
2023/05/19 11:27:31;;;;;;;5.25;2.30;;;;;18.90;99008.00;;;;5054660;28;20498;-66
2023/05/19 11:30:13;;;;;;;2.45;1.67;;;;;19.10;99017.00;;;;5053940;28;20045;-67
2023/05/19 11:32:42;;;;;;;4.72;2.30;;;;;19.20;99009.00;;;;5056123;28;20044;-67
2023/05/19 11:35:09;;;;;;;7.10;2.38;;;;;19.30;99009.00;;;;5058298;28;20067;-66
2023/05/19 11:37:36;;;;;;;5.93;2.47;;;;;19.70;99015.00;;;;5058776;28;20051;-66
2023/05/19 11:40:07;;;;;;;7.00;2.42;;;;;19.80;99009.00;;;;5057318;28;20140;-67
2023/05/19 11:42:35;;;;;;;3.50;1.85;;;;;19.80;99002.00;;;;5055691;28;20055;-67
2023/05/19 11:45:03;;;;;;;3.45;2.38;;;;;20.00;98999.00;;;;5039659;28;20245;-67
2023/05/19 11:47:31;;;;;;;8.13;2.17;;;;;20.20;99004.00;;;;5058031;28;20041;-67
2023/05/19 11:50:12;;;;;;;4.40;1.90;;;;;20.20;98996.00;;;;5056230;28;20413;-65
2023/05/19 11:52:43;;;;;;;6.80;1.92;;;;;20.40;99002.00;;;;5054350;28;20037;-67
2023/05/19 11:55:15;;;;;;;3.47;1.80;;;;;20.60;99006.00;;;;5051721;28;20049;-67
2023/05/19 11:57:57;;;;;;;6.13;1.88;;;;;20.60;98989.00;;;;5052302;28;20429;-67
2023/05/19 12:00:38;;;;;;;5.75;1.90;;;;;20.90;98986.00;;;;5053347;28;20110;-66
2023/05/19 12:03:05;;;;;;;4.18;2.33;;;;;21.20;99006.00;;;;5052125;28;20049;-67
2023/05/19 12:05:36;;;;;;;5.85;2.03;;;;;21.30;98995.00;;;;5052615;28;20047;-68
2023/05/19 12:08:08;;;;;;;5.50;2.15;;;;;21.30;98987.00;;;;5051981;28;20459;-67
2023/05/19 12:10:36;;;;;;;5.55;2.00;;;;;21.40;98981.00;;;;5052629;28;20102;-67
2023/05/19 12:13:06;;;;;;;3.38;1.60;;;;;21.60;98979.00;;;;5051700;28;20041;-67
2023/05/19 12:15:33;;;;;;;4.22;1.88;;;;;21.90;98989.00;;;;5052371;28;20087;-67
2023/05/19 12:18:01;;;;;;;5.68;2.22;;;;;21.70;98990.00;;;;5051215;28;20056;-66
2023/05/19 12:20:31;;;;;;;5.57;1.73;;;;;21.70;98991.00;;;;5051118;28;20100;-67
2023/05/19 12:22:59;;;;;;;3.75;1.63;;;;;21.70;98983.00;;;;5051646;28;20453;-66
2023/05/19 12:25:28;;;;;;;4.40;1.77;;;;;21.60;98986.00;;;;5051358;28;20051;-66
2023/05/19 12:27:59;;;;;;;3.53;1.58;;;;;21.60;98976.00;;;;5052470;28;20498;-66
2023/05/19 12:30:27;;;;;;;9.45;2.17;;;;;21.70;98972.00;;;;5051893;28;20044;-67
2023/05/19 12:32:58;;;;;;;6.95;1.95;;;;;21.50;98986.00;;;;5050905;28;20045;-67